createdAt,value
2018-12-19T00:01:24.355Z,81.57
2018-12-19T00:03:51.805Z,81.71
2018-12-19T00:06:19.253Z,81.52
2018-12-19T00:08:46.692Z,81.99
2018-12-19T00:11:14.136Z,81.70
2018-12-19T00:13:41.584Z,82.05
2018-12-19T00:16:09.029Z,81.77
2018-12-19T00:18:36.462Z,81.52
2018-12-19T00:21:03.914Z,81.15
2018-12-19T00:23:31.410Z,81.61
2018-12-19T00:25:58.862Z,81.98
2018-12-19T00:28:26.306Z,81.31
2018-12-19T00:30:53.831Z,81.18
2018-12-19T00:33:21.266Z,81.35
2018-12-19T00:35:48.709Z,80.66
2018-12-19T00:38:16.171Z,81.32
2018-12-19T00:40:43.625Z,80.86
2018-12-19T00:43:11.052Z,80.47
2018-12-19T00:45:38.505Z,81.23
2018-12-19T00:48:05.946Z,80.56
2018-12-19T00:50:33.397Z,80.48
2018-12-19T00:53:00.832Z,79.96
2018-12-19T00:55:28.281Z,80.16
2018-12-19T00:57:55.722Z,80.18
2018-12-19T01:00:23.165Z,79.88
2018-12-19T01:02:50.605Z,80.04
2018-12-19T01:05:18.055Z,79.90
2018-12-19T01:07:45.490Z,79.28
2018-12-19T01:10:12.938Z,79.03
2018-12-19T01:12:41.503Z,78.68
2018-12-19T01:15:08.988Z,79.03
2018-12-19T01:17:36.424Z,78.85
2018-12-19T01:20:03.938Z,78.79
2018-12-19T01:22:31.372Z,78.44
2018-12-19T01:24:58.892Z,78.77
2018-12-19T01:27:26.328Z,77.81
2018-12-19T01:29:53.773Z,78.71
2018-12-19T01:32:21.212Z,78.27
2018-12-19T01:34:48.660Z,77.91
2018-12-19T01:37:16.094Z,77.79
2018-12-19T01:39:43.545Z,77.98
2018-12-19T01:42:11.706Z,78.16
2018-12-19T01:44:39.156Z,78.14
2018-12-19T01:47:06.588Z,78.48
2018-12-19T01:49:34.039Z,77.48
2018-12-19T01:52:01.473Z,78.19
2018-12-19T01:54:28.933Z,78.50
2018-12-19T01:56:56.374Z,78.70
2018-12-19T01:59:23.819Z,78.18
2018-12-19T02:01:51.268Z,77.57
2018-12-19T02:04:18.713Z,78.50
2018-12-19T02:06:46.152Z,78.52
2018-12-19T02:09:13.603Z,78.11
2018-12-19T02:11:41.037Z,77.99
2018-12-19T02:14:08.481Z,77.67
2018-12-19T02:16:35.912Z,77.90
2018-12-19T02:19:03.361Z,77.66
2018-12-19T02:21:30.813Z,77.74
2018-12-19T02:23:58.262Z,77.82
2018-12-19T02:26:25.708Z,77.57
2018-12-19T02:28:53.137Z,77.44
2018-12-19T02:31:20.594Z,77.30
2018-12-19T02:33:48.024Z,77.15
2018-12-19T02:36:15.470Z,77.54
2018-12-19T02:38:42.954Z,77.07
2018-12-19T02:41:10.404Z,77.61
2018-12-19T02:43:37.846Z,77.45
2018-12-19T02:46:05.289Z,77.62
2018-12-19T02:48:32.724Z,77.50
2018-12-19T02:51:00.168Z,77.35
2018-12-19T02:53:27.600Z,77.39
2018-12-19T02:55:55.045Z,76.85
2018-12-19T02:58:22.482Z,77.16
2018-12-19T03:00:49.926Z,76.99
2018-12-19T03:03:18.126Z,76.86
2018-12-19T03:05:45.566Z,77.39
2018-12-19T03:08:13.073Z,77.80
2018-12-19T03:10:40.508Z,76.71
2018-12-19T03:13:07.941Z,77.21
2018-12-19T03:15:35.387Z,77.34
2018-12-19T03:18:02.830Z,77.09
2018-12-19T03:20:30.275Z,77.44
2018-12-19T03:22:57.714Z,77.25
2018-12-19T03:25:25.229Z,77.33
2018-12-19T03:27:52.665Z,76.89
2018-12-19T03:30:20.102Z,76.39
2018-12-19T03:32:47.540Z,76.72
2018-12-19T03:35:15.299Z,77.16
2018-12-19T03:37:42.733Z,77.10
2018-12-19T03:40:10.183Z,76.31
2018-12-19T03:42:37.618Z,76.71
2018-12-19T03:45:05.130Z,76.61
2018-12-19T03:47:32.565Z,76.35
2018-12-19T03:50:00.263Z,76.31
2018-12-19T03:52:27.707Z,76.74
2018-12-19T03:54:55.141Z,76.56
2018-12-19T03:57:22.832Z,76.83
2018-12-19T03:59:50.298Z,76.39
2018-12-19T04:02:17.750Z,76.68
2018-12-19T04:04:45.185Z,76.25
2018-12-19T04:07:12.627Z,76.53
2018-12-19T04:09:40.113Z,76.58
2018-12-19T04:12:07.565Z,76.15
2018-12-19T04:14:35.015Z,76.66
2018-12-19T04:17:02.587Z,76.64
2018-12-19T04:19:30.110Z,76.56
2018-12-19T04:21:57.606Z,77.01
2018-12-19T04:24:25.060Z,76.72
2018-12-19T04:26:52.553Z,76.63
2018-12-19T04:29:19.985Z,76.69
2018-12-19T04:31:47.424Z,76.61
2018-12-19T04:34:14.937Z,76.69
2018-12-19T04:36:42.378Z,76.67
2018-12-19T04:39:09.817Z,76.36
2018-12-19T04:41:37.265Z,75.78
2018-12-19T04:44:04.692Z,75.83
2018-12-19T04:46:32.184Z,75.97
2018-12-19T04:48:59.623Z,76.09
2018-12-19T04:51:27.062Z,75.71
2018-12-19T04:53:55.370Z,76.46
2018-12-19T04:56:22.813Z,76.08
2018-12-19T04:58:50.248Z,76.57
2018-12-19T05:01:17.705Z,76.40
2018-12-19T05:03:45.135Z,76.43
2018-12-19T05:06:12.570Z,76.43
2018-12-19T05:08:40.000Z,75.52
2018-12-19T05:11:07.449Z,77.21
2018-12-19T05:13:34.882Z,76.94
2018-12-19T05:16:02.328Z,75.83
2018-12-19T05:18:29.760Z,76.66
2018-12-19T05:20:57.196Z,76.48
2018-12-19T05:23:24.642Z,76.26
2018-12-19T05:25:52.077Z,76.61
2018-12-19T05:28:19.513Z,76.30
2018-12-19T05:30:46.949Z,76.61
2018-12-19T05:33:14.387Z,76.56
2018-12-19T05:35:41.832Z,75.88
2018-12-19T05:38:09.261Z,76.10
2018-12-19T05:40:36.705Z,75.98
2018-12-19T05:43:04.148Z,76.26
2018-12-19T05:45:31.576Z,76.37
2018-12-19T05:47:59.022Z,76.02
2018-12-19T05:50:28.856Z,76.19
2018-12-19T05:52:56.292Z,76.02
2018-12-19T05:55:23.756Z,75.75
2018-12-19T05:57:51.492Z,75.89
2018-12-19T06:00:19.180Z,76.58
2018-12-19T06:02:46.629Z,76.24
2018-12-19T06:05:14.070Z,76.67
2018-12-19T06:07:41.603Z,76.08
2018-12-19T06:10:09.054Z,76.12
2018-12-19T06:12:36.581Z,75.76
2018-12-19T06:15:04.021Z,75.98
2018-12-19T06:17:31.518Z,76.60
2018-12-19T06:19:58.953Z,76.05
2018-12-19T06:22:26.481Z,76.28
2018-12-19T06:24:53.920Z,76.12
2018-12-19T06:27:21.365Z,76.16
2018-12-19T06:29:48.809Z,75.74
2018-12-19T06:32:16.257Z,75.87
2018-12-19T06:34:43.710Z,76.39
2018-12-19T06:37:11.164Z,75.64
2018-12-19T06:39:38.614Z,75.50
2018-12-19T06:42:06.061Z,75.84
2018-12-19T06:44:33.500Z,75.30
2018-12-19T06:47:00.944Z,75.98
2018-12-19T06:49:28.393Z,75.47
2018-12-19T06:51:55.842Z,75.51
2018-12-19T06:54:23.281Z,75.05
2018-12-19T06:56:50.723Z,75.58
2018-12-19T06:59:18.162Z,75.87
2018-12-19T07:01:45.596Z,75.45
2018-12-19T07:04:13.045Z,76.13
2018-12-19T07:06:40.492Z,75.35
2018-12-19T07:09:08.691Z,75.68
2018-12-19T07:11:36.146Z,75.29
2018-12-19T07:14:03.580Z,75.36
2018-12-19T07:16:31.024Z,75.26
2018-12-19T07:18:58.471Z,75.07
2018-12-19T07:21:26.083Z,74.54
2018-12-19T07:23:53.637Z,75.12
2018-12-19T07:26:21.090Z,74.56
2018-12-19T07:28:48.536Z,74.82
2018-12-19T07:31:15.980Z,74.26
2018-12-19T07:33:43.441Z,74.66
2018-12-19T07:36:10.952Z,74.48
2018-12-19T07:38:38.401Z,74.64
2018-12-19T07:41:05.829Z,74.65
2018-12-19T07:43:33.301Z,73.85
2018-12-19T07:46:00.782Z,73.93
2018-12-19T07:48:28.576Z,74.41
2018-12-19T07:50:56.008Z,73.58
2018-12-19T07:53:23.456Z,73.83
2018-12-19T07:55:51.154Z,74.33
2018-12-19T07:58:18.618Z,73.93
2018-12-19T08:00:46.061Z,73.93
2018-12-19T08:03:13.511Z,73.83
2018-12-19T08:05:40.964Z,74.39
2018-12-19T08:08:08.418Z,74.09
2018-12-19T08:10:35.856Z,73.35
2018-12-19T08:13:03.308Z,74.06
2018-12-19T08:15:30.759Z,73.32
2018-12-19T08:17:58.221Z,73.03
2018-12-19T08:20:25.661Z,73.01
2018-12-19T08:22:53.112Z,72.95
2018-12-19T08:25:20.560Z,73.22
2018-12-19T08:27:48.039Z,72.48
2018-12-19T08:30:15.477Z,72.77
2018-12-19T08:32:43.030Z,72.47
2018-12-19T08:35:10.482Z,71.98
2018-12-19T08:37:37.932Z,72.01
2018-12-19T08:40:05.382Z,71.73
2018-12-19T08:42:32.820Z,71.95
2018-12-19T08:45:00.260Z,71.86
2018-12-19T08:47:27.705Z,70.77
2018-12-19T08:49:55.160Z,71.39
2018-12-19T08:52:22.610Z,71.33
2018-12-19T08:54:50.054Z,70.91
2018-12-19T08:57:17.501Z,71.57
2018-12-19T08:59:44.936Z,70.90
2018-12-19T09:02:12.409Z,70.81
2018-12-19T09:04:39.917Z,70.38
2018-12-19T09:07:07.357Z,70.88
2018-12-19T09:09:34.805Z,70.43
2018-12-19T09:12:02.288Z,69.80
2018-12-19T09:14:29.743Z,69.92
2018-12-19T09:16:57.199Z,70.19
2018-12-19T09:19:24.658Z,69.91
2018-12-19T09:21:52.101Z,69.82
2018-12-19T09:24:19.557Z,69.18
2018-12-19T09:26:47.066Z,69.23
2018-12-19T09:29:14.535Z,69.12
2018-12-19T09:31:41.960Z,69.75
2018-12-19T09:34:09.418Z,69.67
2018-12-19T09:36:36.933Z,69.32
2018-12-19T09:39:04.525Z,69.35
2018-12-19T09:41:31.963Z,69.42
2018-12-19T09:43:59.470Z,69.10
2018-12-19T09:46:26.904Z,69.28
2018-12-19T09:48:54.349Z,69.16
2018-12-19T09:51:21.806Z,68.56
2018-12-19T09:53:49.254Z,69.02
2018-12-19T09:56:16.702Z,69.07
2018-12-19T09:58:44.163Z,69.51
2018-12-19T10:01:11.608Z,68.84
2018-12-19T10:03:39.060Z,68.62
2018-12-19T10:06:06.502Z,69.35
2018-12-19T10:08:33.947Z,68.84
2018-12-19T10:11:01.484Z,69.29
2018-12-19T10:13:28.942Z,69.25
2018-12-19T10:15:56.376Z,68.46
2018-12-19T10:18:23.834Z,68.65
2018-12-19T10:20:51.276Z,68.22
2018-12-19T10:23:18.720Z,68.02
2018-12-19T10:25:48.142Z,67.99
2018-12-19T10:28:19.857Z,67.85
2018-12-19T10:30:47.635Z,68.57
2018-12-19T10:33:15.070Z,68.51
2018-12-19T10:35:42.515Z,67.95
2018-12-19T10:38:09.985Z,67.93
2018-12-19T10:40:37.436Z,67.89
2018-12-19T10:43:04.880Z,68.25
2018-12-19T10:45:32.322Z,67.91
2018-12-19T10:47:59.774Z,67.70
2018-12-19T10:50:27.221Z,67.59
2018-12-19T10:52:54.653Z,67.14
2018-12-19T10:55:22.104Z,67.61
2018-12-19T10:57:49.637Z,66.94
2018-12-19T11:00:22.369Z,67.11
2018-12-19T11:02:49.813Z,67.30
2018-12-19T11:05:17.280Z,67.18
2018-12-19T11:07:44.708Z,67.05
2018-12-19T11:10:12.200Z,67.09
2018-12-19T11:12:39.652Z,67.23
2018-12-19T11:15:09.053Z,67.26
2018-12-19T11:17:36.492Z,66.83
2018-12-19T11:20:03.992Z,66.93
2018-12-19T11:22:31.457Z,67.25
2018-12-19T11:24:58.893Z,66.63
2018-12-19T11:27:26.344Z,67.15
2018-12-19T11:29:53.792Z,67.22
2018-12-19T11:32:21.258Z,67.19
2018-12-19T11:34:48.712Z,67.00
2018-12-19T11:37:16.183Z,66.37
2018-12-19T11:39:43.697Z,66.32
2018-12-19T11:42:11.134Z,66.84
2018-12-19T11:44:38.602Z,67.12
2018-12-19T11:47:06.043Z,67.02
2018-12-19T11:49:33.500Z,67.17
2018-12-19T11:52:00.957Z,67.11
2018-12-19T11:54:28.406Z,67.52
2018-12-19T11:56:55.854Z,66.96
2018-12-19T11:59:23.326Z,66.79
2018-12-19T12:01:50.779Z,67.88
2018-12-19T12:04:18.234Z,67.79
2018-12-19T12:06:45.679Z,67.57
2018-12-19T12:09:13.126Z,67.00
2018-12-19T12:11:45.554Z,67.53
2018-12-19T12:14:10.000Z,67.24
2018-12-19T12:16:37.445Z,67.12
2018-12-19T12:19:04.925Z,66.98
2018-12-19T12:21:32.376Z,67.01
2018-12-19T12:23:59.906Z,66.78
2018-12-19T12:26:27.354Z,67.25
2018-12-19T12:28:54.801Z,67.22
2018-12-19T12:31:22.243Z,67.11
2018-12-19T12:33:50.773Z,67.19
2018-12-19T12:36:18.376Z,67.13
2018-12-19T12:38:45.837Z,66.98
2018-12-19T12:41:13.298Z,66.77
2018-12-19T12:43:40.736Z,66.65
2018-12-19T12:46:08.184Z,67.18
2018-12-19T12:48:35.645Z,67.15
2018-12-19T12:51:03.108Z,66.77
2018-12-19T12:53:30.546Z,66.96
2018-12-19T12:55:57.989Z,67.01
2018-12-19T12:58:25.420Z,67.38
2018-12-19T13:00:52.866Z,66.95
2018-12-19T13:03:20.305Z,67.31
2018-12-19T13:05:47.745Z,67.00
2018-12-19T13:08:15.205Z,67.00
2018-12-19T13:10:42.652Z,67.01
2018-12-19T13:13:10.113Z,66.82
2018-12-19T13:15:43.746Z,67.50
2018-12-19T13:18:11.185Z,67.09
2018-12-19T13:20:38.640Z,66.91
2018-12-19T13:23:06.076Z,67.05
2018-12-19T13:25:33.580Z,66.98
2018-12-19T13:28:01.288Z,67.50
2018-12-19T13:30:28.721Z,67.18
2018-12-19T13:32:56.160Z,67.08
2018-12-19T13:35:23.592Z,67.07
2018-12-19T13:37:51.053Z,67.36
2018-12-19T13:40:18.486Z,67.42
2018-12-19T13:42:45.925Z,67.46
2018-12-19T13:45:13.384Z,67.12
2018-12-19T13:47:40.825Z,66.87
2018-12-19T13:50:08.268Z,67.23
2018-12-19T13:52:35.721Z,67.57
2018-12-19T13:55:03.159Z,66.96
2018-12-19T13:57:30.601Z,67.18
2018-12-19T13:59:58.037Z,67.66
2018-12-19T14:02:25.491Z,67.03
2018-12-19T14:04:52.932Z,67.31
2018-12-19T14:07:21.340Z,67.81
2018-12-19T14:09:48.870Z,68.26
2018-12-19T14:12:16.324Z,68.18
2018-12-19T14:14:43.769Z,67.99
2018-12-19T14:17:11.206Z,68.38
2018-12-19T14:19:38.672Z,68.05
2018-12-19T14:22:06.121Z,68.21
2018-12-19T14:24:33.577Z,68.81
2018-12-19T14:27:01.017Z,67.93
2018-12-19T14:29:28.520Z,67.79
2018-12-19T14:31:55.977Z,68.51
2018-12-19T14:34:23.413Z,68.24
2018-12-19T14:36:50.915Z,68.36
2018-12-19T14:39:18.382Z,68.62
2018-12-19T14:41:45.823Z,68.64
2018-12-19T14:44:13.523Z,68.05
2018-12-19T14:46:40.936Z,68.51
2018-12-19T14:49:13.760Z,68.49
2018-12-19T14:51:37.796Z,68.79
2018-12-19T14:54:05.227Z,67.91
2018-12-19T14:56:32.677Z,68.65
2018-12-19T14:59:00.120Z,68.18
2018-12-19T15:01:27.564Z,68.53
2018-12-19T15:03:55.014Z,68.72
2018-12-19T15:06:22.476Z,68.28
2018-12-19T15:08:49.995Z,68.44
2018-12-19T15:11:17.432Z,68.69
2018-12-19T15:13:44.876Z,69.04
2018-12-19T15:16:12.316Z,68.44
2018-12-19T15:18:39.825Z,68.55
2018-12-19T15:21:07.285Z,68.84
2018-12-19T15:23:34.757Z,68.64
2018-12-19T15:26:02.244Z,68.78
2018-12-19T15:28:29.682Z,68.58
2018-12-19T15:30:57.124Z,68.91
2018-12-19T15:33:24.553Z,69.15
2018-12-19T15:35:52.047Z,69.11
2018-12-19T15:38:19.480Z,69.53
2018-12-19T15:40:46.918Z,69.39
2018-12-19T15:43:14.398Z,69.03
2018-12-19T15:45:41.839Z,69.36
2018-12-19T15:48:09.279Z,69.56
2018-12-19T15:50:36.711Z,69.57
2018-12-19T15:53:04.165Z,69.94
2018-12-19T15:55:31.622Z,69.24
2018-12-19T15:57:59.053Z,69.24
2018-12-19T16:00:26.520Z,69.49
2018-12-19T16:02:53.975Z,69.97
2018-12-19T16:05:21.477Z,69.89
2018-12-19T16:07:48.912Z,70.33
2018-12-19T16:10:16.808Z,69.54
2018-12-19T16:12:44.257Z,70.52
2018-12-19T16:15:11.698Z,69.97
2018-12-19T16:17:39.140Z,69.69
2018-12-19T16:20:06.583Z,68.81
2018-12-19T16:22:34.043Z,68.50
2018-12-19T16:25:01.481Z,68.01
2018-12-19T16:27:28.932Z,66.95
2018-12-19T16:29:56.376Z,67.41
2018-12-19T16:32:23.813Z,66.93
2018-12-19T16:34:51.256Z,66.81
2018-12-19T16:37:18.692Z,66.73
2018-12-19T16:39:46.128Z,66.57
2018-12-19T16:42:13.578Z,66.66
2018-12-19T16:44:41.021Z,66.63
2018-12-19T16:47:08.456Z,66.36
2018-12-19T16:49:35.902Z,66.63
2018-12-19T16:52:03.481Z,66.77
2018-12-19T16:54:30.938Z,66.45
2018-12-19T16:56:58.465Z,66.81
2018-12-19T16:59:25.896Z,67.49
2018-12-19T17:01:53.380Z,67.10
2018-12-19T17:04:20.825Z,68.09
2018-12-19T17:06:48.261Z,68.01
2018-12-19T17:09:15.710Z,68.01
2018-12-19T17:11:43.148Z,67.94
2018-12-19T17:14:10.584Z,68.68
2018-12-19T17:16:38.094Z,68.60
2018-12-19T17:19:05.540Z,68.97
2018-12-19T17:21:32.988Z,69.53
2018-12-19T17:24:00.604Z,69.62
2018-12-19T17:26:28.058Z,69.88
2018-12-19T17:28:55.492Z,70.09
2018-12-19T17:31:22.989Z,70.14
2018-12-19T17:33:50.491Z,70.86
2018-12-19T17:36:17.929Z,70.68
2018-12-19T17:38:46.253Z,70.92
2018-12-19T17:41:13.696Z,71.01
2018-12-19T17:43:41.136Z,71.49
2018-12-19T17:46:08.568Z,71.51
2018-12-19T17:48:36.017Z,71.36
2018-12-19T17:51:03.464Z,70.80
2018-12-19T17:53:30.904Z,71.80
2018-12-19T17:55:58.370Z,71.83
2018-12-19T17:58:25.813Z,71.64
2018-12-19T18:00:53.300Z,71.90
2018-12-19T18:03:20.755Z,71.71
2018-12-19T18:05:48.192Z,72.39
2018-12-19T18:08:15.725Z,72.96
2018-12-19T18:10:43.163Z,72.83
2018-12-19T18:13:10.614Z,73.31
2018-12-19T18:15:38.054Z,73.50
2018-12-19T18:18:05.504Z,73.94
2018-12-19T18:20:32.933Z,74.21
2018-12-19T18:23:01.090Z,73.45
2018-12-19T18:25:28.525Z,74.02
2018-12-19T18:27:55.981Z,74.03
2018-12-19T18:30:23.412Z,74.15
2018-12-19T18:32:50.865Z,74.10
2018-12-19T18:35:18.297Z,74.81
2018-12-19T18:37:45.832Z,74.31
2018-12-19T18:40:13.265Z,74.33
2018-12-19T18:42:40.722Z,74.97
2018-12-19T18:45:11.896Z,75.18
2018-12-19T18:47:37.562Z,75.84
2018-12-19T18:50:05.010Z,75.15
2018-12-19T18:52:32.460Z,75.44
2018-12-19T18:54:59.886Z,76.27
2018-12-19T18:57:27.332Z,75.51
2018-12-19T18:59:54.816Z,76.19
2018-12-19T19:02:22.294Z,75.66
2018-12-19T19:04:49.769Z,75.08
2018-12-19T19:07:17.302Z,75.15
2018-12-19T19:09:44.773Z,74.96
2018-12-19T19:12:12.217Z,74.68
2018-12-19T19:14:39.700Z,75.10
2018-12-19T19:17:07.153Z,74.60
2018-12-19T19:19:34.602Z,74.90
2018-12-19T19:22:02.038Z,74.81
2018-12-19T19:24:29.482Z,75.16
2018-12-19T19:26:56.930Z,75.12
2018-12-19T19:29:24.416Z,75.13
2018-12-19T19:31:51.855Z,75.50
2018-12-19T19:34:24.880Z,75.00
2018-12-19T19:36:48.722Z,75.54
2018-12-19T19:39:16.417Z,75.55
2018-12-19T19:41:43.920Z,75.76
2018-12-19T19:44:11.364Z,75.61
2018-12-19T19:46:38.809Z,74.98
2018-12-19T19:49:06.248Z,75.57
2018-12-19T19:51:33.707Z,75.75
2018-12-19T19:54:01.156Z,75.46
2018-12-19T19:56:28.609Z,75.68
2018-12-19T19:58:56.060Z,75.84
2018-12-19T20:01:23.503Z,75.42
2018-12-19T20:03:50.932Z,75.41
2018-12-19T20:06:18.380Z,76.47
2018-12-19T20:08:45.824Z,76.49
2018-12-19T20:11:13.252Z,76.65
2018-12-19T20:13:40.698Z,76.09
2018-12-19T20:16:08.148Z,76.33
2018-12-19T20:18:35.644Z,76.83
2018-12-19T20:21:03.083Z,76.19
2018-12-19T20:23:30.523Z,77.16
2018-12-19T20:25:57.966Z,76.27
2018-12-19T20:28:25.408Z,77.09
2018-12-19T20:30:52.845Z,77.18
2018-12-19T20:33:20.284Z,76.70
2018-12-19T20:35:47.726Z,76.87
2018-12-19T20:38:15.176Z,77.60
2018-12-19T20:40:42.617Z,77.82
2018-12-19T20:43:10.053Z,77.02
2018-12-19T20:45:37.497Z,76.77
2018-12-19T20:48:04.981Z,76.31
2018-12-19T20:50:32.425Z,76.66
2018-12-19T20:52:59.896Z,76.42
2018-12-19T20:55:27.422Z,76.65
2018-12-19T20:57:54.919Z,76.85
2018-12-19T21:00:22.440Z,76.09
2018-12-19T21:02:49.884Z,76.51
2018-12-19T21:05:17.957Z,76.49
2018-12-19T21:07:45.400Z,75.92
2018-12-19T21:10:12.857Z,75.68
2018-12-19T21:12:40.300Z,75.29
2018-12-19T21:15:07.749Z,76.02
2018-12-19T21:17:40.567Z,76.06
2018-12-19T21:20:07.997Z,76.07
2018-12-19T21:22:35.456Z,75.61
2018-12-19T21:25:02.936Z,76.12
2018-12-19T21:27:30.376Z,76.31
2018-12-19T21:29:57.816Z,76.70
2018-12-19T21:32:25.243Z,76.24
2018-12-19T21:34:52.717Z,76.95
2018-12-19T21:37:20.148Z,76.97
2018-12-19T21:39:47.594Z,77.00
2018-12-19T21:42:15.029Z,77.74
2018-12-19T21:44:42.461Z,77.75
2018-12-19T21:47:09.907Z,77.68
2018-12-19T21:49:37.416Z,77.63
2018-12-19T21:52:04.859Z,78.55
2018-12-19T21:54:32.296Z,78.52
2018-12-19T21:56:59.743Z,78.83
2018-12-19T21:59:27.174Z,78.28
2018-12-19T22:01:54.686Z,78.83
2018-12-19T22:04:22.132Z,78.79
2018-12-19T22:06:49.665Z,79.83
2018-12-19T22:09:17.329Z,79.24
2018-12-19T22:11:44.769Z,79.12
2018-12-19T22:14:12.220Z,78.42
2018-12-19T22:16:45.156Z,78.10
2018-12-19T22:19:12.595Z,77.86
2018-12-19T22:21:40.029Z,78.08
2018-12-19T22:24:07.474Z,77.79
2018-12-19T22:26:34.979Z,78.67
2018-12-19T22:29:02.507Z,78.36
2018-12-19T22:31:29.962Z,79.07
2018-12-19T22:33:57.488Z,78.92
2018-12-19T22:36:25.023Z,77.98
2018-12-19T22:38:52.457Z,78.72
2018-12-19T22:41:19.886Z,78.33
2018-12-19T22:43:47.351Z,78.50
2018-12-19T22:46:14.857Z,78.36
2018-12-19T22:48:42.408Z,77.89
2018-12-19T22:51:09.936Z,77.32
2018-12-19T22:53:37.526Z,77.88
2018-12-19T22:56:05.903Z,78.38
2018-12-19T22:58:33.391Z,77.59
2018-12-19T23:01:06.351Z,77.58
2018-12-19T23:03:39.255Z,77.29
2018-12-19T23:06:06.843Z,77.40
2018-12-19T23:08:34.370Z,77.07
2018-12-19T23:11:01.893Z,77.31
2018-12-19T23:13:29.418Z,77.12
2018-12-19T23:15:56.918Z,77.75
2018-12-19T23:18:27.418Z,77.90
2018-12-19T23:20:54.912Z,77.82
2018-12-19T23:23:23.238Z,78.64
2018-12-19T23:25:50.920Z,78.51
2018-12-19T23:28:18.471Z,78.41
2018-12-19T23:30:46.075Z,79.96
2018-12-19T23:33:13.633Z,79.63
2018-12-19T23:35:41.076Z,79.94
2018-12-19T23:38:08.578Z,79.81
2018-12-19T23:40:36.029Z,79.79
2018-12-19T23:43:03.541Z,79.82
2018-12-19T23:45:30.979Z,80.03
2018-12-19T23:47:58.430Z,80.81
2018-12-19T23:50:25.936Z,81.27
2018-12-19T23:52:53.368Z,81.21
2018-12-19T23:55:20.839Z,80.81
2018-12-19T23:57:48.465Z,81.00
